Aviation Digital Data Service (ADDS)

Output produced by METARs form (1519 UTC 23 January 2019)
found at http://www.aviationweather.gov/metar/data/
 
Forecast for: LFBD (BORDEAUX/MERIGNA, FR)
Text: TAF LFBD 231100Z 2312/2418 33012KT 9999 SCT040 BKN070 TX08/2312Z TN01/2406Z
Forecast period: 1200 to 1800 UTC 23 January 2019
Forecast type: FROM: standard forecast or significant change
Winds: from the NNW (330 degrees) at 14 MPH (12 knots; 6.2 m/s)
Visibility: 6 or more miles 10+ km)
Ceiling: 7000 feet AGL
Clouds: scattered clouds at 4000 feet AGL
broken clouds at 7000 feet AGL
Weather: no significant weather forecast for this period
Text: PROB30
Forecast period: 1200 to 1800 UTC 23 January 2019
Forecast type: TEMPORARY: The following changes expected for less than half the time period
Winds: from the NW (320 degrees) at 17 MPH (15 knots; 7.7 m/s)
gusting to 29 MPH (25 knots; 12.9 m/s)
Visibility: 2.49 miles (4.01 km)
Ceiling: 3000 feet AGL
Clouds: broken clouds at 3000 feet AGL
Weather: -SHRA  (light rain showers)
Text: TEMPO 2312/2318 32015G25KT 4000 -SHRA BKN030TCU
Forecast period: 1800 UTC 23 January 2019 to 1800 UTC 24 January 2019
Forecast type: BECOMING: Conditions expected to become as follows by 2000 UTC 23 January 2019
Winds: from the NNW (330 degrees) at 14 MPH (12 knots; 6.2 m/s)
Visibility: 6 or more miles 10+ km)
Ceiling: unknown
Clouds: missing
Weather: NSW  (no significant weather)